createdAt,value
2022-09-22T00:01:00.930Z,101321.69
2022-09-22T00:03:31.029Z,101340.91
2022-09-22T00:06:02.679Z,101341.97
2022-09-22T00:08:32.171Z,101368.38
2022-09-22T00:11:02.531Z,101373.78
2022-09-22T00:13:30.488Z,101370.31
2022-09-22T00:15:58.233Z,101370.38
2022-09-22T00:18:26.034Z,101363.34
2022-09-22T00:20:53.695Z,101369.63
2022-09-22T00:23:21.470Z,101365.22
2022-09-22T00:25:49.787Z,101363.50
2022-09-22T00:28:20.279Z,101366.22
2022-09-22T00:30:48.004Z,101376.00
2022-09-22T00:33:15.687Z,101368.00
2022-09-22T00:35:43.379Z,101371.63
2022-09-22T00:38:11.062Z,101357.50
2022-09-22T00:40:38.837Z,101363.72
2022-09-22T00:43:14.575Z,101361.91
2022-09-22T00:45:43.633Z,101318.09
2022-09-22T00:48:11.323Z,101360.38
2022-09-22T00:50:38.978Z,101357.78
2022-09-22T00:53:08.311Z,101356.94
2022-09-22T00:55:37.982Z,101353.34
2022-09-22T00:58:07.755Z,101349.03
2022-09-22T01:00:35.504Z,101348.16
2022-09-22T01:03:05.874Z,101352.91
2022-09-22T01:05:33.881Z,101300.84
2022-09-22T01:08:01.653Z,101351.84
2022-09-22T01:10:29.337Z,101348.31
2022-09-22T01:13:02.308Z,101355.47
2022-09-22T01:15:32.540Z,101348.44
2022-09-22T01:18:05.062Z,101348.53
2022-09-22T01:21:13.365Z,101347.66
2022-09-22T01:24:07.155Z,101337.81
2022-09-22T01:27:00.308Z,101277.41
2022-09-22T01:29:57.551Z,101269.06
2022-09-22T01:32:28.779Z,101323.56
2022-09-22T01:34:57.827Z,101337.22
2022-09-22T01:37:26.762Z,101331.91
2022-09-22T01:39:56.344Z,101334.63
2022-09-22T01:42:28.139Z,101338.22
2022-09-22T01:44:57.239Z,101331.19
2022-09-22T01:47:28.381Z,101317.47
2022-09-22T01:49:59.084Z,101282.22
2022-09-22T01:52:28.721Z,101329.59
2022-09-22T01:54:58.022Z,101326.84
2022-09-22T01:57:29.754Z,101333.19
2022-09-22T02:00:06.608Z,101331.34
2022-09-22T02:02:37.961Z,101250.88
2022-09-22T02:05:07.013Z,101278.78
2022-09-22T02:07:36.663Z,101326.16
2022-09-22T02:10:06.860Z,101320.75
2022-09-22T02:12:35.272Z,101320.13
2022-09-22T02:15:02.999Z,101307.91
2022-09-22T02:17:34.980Z,101312.16
2022-09-22T02:20:05.913Z,101316.53
2022-09-22T02:22:33.618Z,101314.81
2022-09-22T02:25:01.285Z,101309.56
2022-09-22T02:27:35.633Z,101310.66
2022-09-22T02:30:04.852Z,101294.03
2022-09-22T02:32:32.588Z,101308.91
2022-09-22T02:35:02.150Z,101301.19
2022-09-22T02:37:33.959Z,101304.53
2022-09-22T02:40:05.690Z,101308.81
2022-09-22T02:42:34.702Z,101295.75
2022-09-22T02:45:05.272Z,101302.81
2022-09-22T02:47:35.380Z,101271.13
2022-09-22T02:50:03.142Z,101311.06
2022-09-22T02:52:32.212Z,101297.63
2022-09-22T02:54:59.972Z,101299.34
2022-09-22T02:57:27.645Z,101295.88
2022-09-22T02:59:55.336Z,101292.44
2022-09-22T03:02:23.017Z,101299.56
2022-09-22T03:04:51.324Z,101297.91
2022-09-22T03:07:19.079Z,101289.13
2022-09-22T03:09:48.119Z,101294.44
2022-09-22T03:12:15.818Z,101288.19
2022-09-22T03:14:44.039Z,101284.69
2022-09-22T03:17:11.725Z,101287.41
2022-09-22T03:19:39.425Z,101284.81
2022-09-22T03:22:07.095Z,101275.16
2022-09-22T03:24:34.809Z,101286.75
2022-09-22T03:27:03.864Z,101275.16
2022-09-22T03:29:31.561Z,101269.06
2022-09-22T03:31:59.219Z,101268.13
2022-09-22T03:34:26.913Z,101270.00
2022-09-22T03:36:54.607Z,101269.16
2022-09-22T03:39:22.326Z,101268.34
2022-09-22T03:41:50.466Z,101271.00
2022-09-22T03:44:19.546Z,101272.84
2022-09-22T03:46:47.222Z,101271.06
2022-09-22T03:49:15.053Z,101269.34
2022-09-22T03:51:42.753Z,101269.63
2022-09-22T03:54:10.437Z,101274.88
2022-09-22T03:56:38.134Z,101274.00
2022-09-22T03:59:06.059Z,101274.94
2022-09-22T04:01:35.093Z,101270.53
2022-09-22T04:04:03.236Z,101269.69
2022-09-22T04:06:30.911Z,101270.59
2022-09-22T04:08:58.640Z,101275.00
2022-09-22T04:11:26.359Z,101271.41
2022-09-22T04:13:54.186Z,101263.66
2022-09-22T04:16:21.941Z,101268.00
2022-09-22T04:18:50.992Z,101268.97
2022-09-22T04:21:18.651Z,101257.59
2022-09-22T04:23:46.335Z,101261.19
2022-09-22T04:26:13.986Z,101257.03
2022-09-22T04:28:41.778Z,101257.03
2022-09-22T04:31:09.527Z,101253.56
2022-09-22T04:33:37.494Z,101258.88
2022-09-22T04:36:07.326Z,101252.03
2022-09-22T04:38:35.041Z,101256.28
2022-09-22T04:41:02.699Z,101248.38
2022-09-22T04:43:30.434Z,101254.63
2022-09-22T04:45:58.170Z,101247.63
2022-09-22T04:48:25.919Z,101249.38
2022-09-22T04:50:53.588Z,101254.56
2022-09-22T04:53:22.632Z,101257.44
2022-09-22T04:55:50.431Z,101254.03
2022-09-22T04:58:18.133Z,101172.97
2022-09-22T05:00:45.811Z,101249.72
2022-09-22T05:03:15.634Z,101248.78
2022-09-22T05:05:48.039Z,101252.50
2022-09-22T05:08:16.279Z,101249.19
2022-09-22T05:10:45.341Z,101243.13
2022-09-22T05:13:13.644Z,101237.25
2022-09-22T05:15:41.888Z,101252.84
2022-09-22T05:18:09.640Z,101251.97
2022-09-22T05:20:37.940Z,101261.59
2022-09-22T05:23:07.146Z,101252.66
2022-09-22T05:25:34.814Z,101256.00
2022-09-22T05:28:03.927Z,101258.09
2022-09-22T05:30:31.610Z,101258.88
2022-09-22T05:32:59.622Z,101261.66
2022-09-22T05:35:27.386Z,101266.13
2022-09-22T05:37:55.168Z,101266.91
2022-09-22T05:40:24.076Z,101267.97
2022-09-22T05:42:52.455Z,101206.66
2022-09-22T05:45:21.599Z,101264.38
2022-09-22T05:47:49.260Z,101274.88
2022-09-22T05:50:17.871Z,101219.34
2022-09-22T05:52:45.547Z,101265.19
2022-09-22T05:55:13.463Z,101191.81
2022-09-22T05:57:41.162Z,101271.19
2022-09-22T06:00:09.914Z,101272.63
2022-09-22T06:02:39.268Z,101269.16
2022-09-22T06:05:07.279Z,101259.69
2022-09-22T06:07:34.991Z,101268.97
2022-09-22T06:10:02.684Z,101264.53
2022-09-22T06:12:30.930Z,101271.81
2022-09-22T06:14:58.663Z,101268.66
2022-09-22T06:17:26.385Z,101269.75
2022-09-22T06:19:55.430Z,101264.66
2022-09-22T06:22:24.247Z,101265.38
2022-09-22T06:24:51.977Z,101266.13
2022-09-22T06:27:19.667Z,101265.94
2022-09-22T06:29:47.378Z,101265.06
2022-09-22T06:32:15.192Z,101268.53
2022-09-22T06:34:45.207Z,101264.13
2022-09-22T06:37:14.609Z,101262.06
2022-09-22T06:39:42.599Z,101266.44
2022-09-22T06:42:10.925Z,101267.91
2022-09-22T06:44:38.901Z,101263.31
2022-09-22T06:47:09.143Z,101268.63
2022-09-22T06:49:37.456Z,101261.41
2022-09-22T06:52:06.078Z,101186.25
2022-09-22T06:54:35.483Z,101257.53
2022-09-22T06:57:03.870Z,101261.06
2022-09-22T06:59:31.546Z,101260.84
2022-09-22T07:01:59.335Z,101252.75
2022-09-22T07:04:27.318Z,101255.31
2022-09-22T07:06:55.114Z,101206.06
2022-09-22T07:09:22.824Z,101258.59
2022-09-22T07:11:51.996Z,101253.28
2022-09-22T07:14:22.400Z,101258.22
2022-09-22T07:16:52.483Z,101265.06
2022-09-22T07:19:20.183Z,101264.91
2022-09-22T07:21:47.853Z,101266.56
2022-09-22T07:24:15.734Z,101262.91
2022-09-22T07:26:43.942Z,101253.94
2022-09-22T07:29:16.225Z,101262.63
2022-09-22T07:31:44.222Z,101251.19
2022-09-22T07:34:12.800Z,101256.06
2022-09-22T07:36:40.964Z,101218.78
2022-09-22T07:39:11.114Z,101254.53
2022-09-22T07:41:43.011Z,101263.09
2022-09-22T07:44:28.715Z,101225.09
2022-09-22T07:46:57.799Z,101256.69
2022-09-22T07:49:25.503Z,101252.16
2022-09-22T07:51:54.764Z,101245.75
2022-09-22T07:54:22.638Z,101201.97
2022-09-22T07:56:58.583Z,101190.44
2022-09-22T07:59:26.735Z,101251.28
2022-09-22T08:01:54.444Z,101251.50
2022-09-22T08:04:23.851Z,101250.78
2022-09-22T08:06:53.521Z,101249.78
2022-09-22T08:09:21.210Z,101251.59
2022-09-22T08:11:50.132Z,101251.69
2022-09-22T08:14:18.261Z,101251.31
2022-09-22T08:16:46.844Z,101190.63
2022-09-22T08:19:14.796Z,101192.41
2022-09-22T08:21:48.745Z,101239.75
2022-09-22T08:24:21.318Z,101174.03
2022-09-22T08:26:50.096Z,101244.41
2022-09-22T08:29:17.779Z,101236.97
2022-09-22T08:31:46.916Z,101196.19
2022-09-22T08:34:16.813Z,101185.47
2022-09-22T08:36:48.233Z,101234.28
2022-09-22T08:39:16.163Z,101177.09
2022-09-22T08:41:47.644Z,101186.97
2022-09-22T08:44:20.379Z,101227.38
2022-09-22T08:46:48.517Z,101181.06
2022-09-22T08:49:37.861Z,101230.72
2022-09-22T08:52:09.826Z,101238.38
2022-09-22T08:54:38.755Z,101225.50
2022-09-22T08:57:21.341Z,101226.06
2022-09-22T08:59:52.105Z,101230.28
2022-09-22T09:02:40.155Z,101226.47
2022-09-22T09:05:47.067Z,101232.53
2022-09-22T09:08:39.321Z,101228.16
2022-09-22T09:11:12.907Z,101231.88
2022-09-22T09:13:48.923Z,101219.47
2022-09-22T09:16:25.825Z,101172.88
2022-09-22T09:18:55.515Z,101224.53
2022-09-22T09:21:23.175Z,101221.81
2022-09-22T09:26:41.920Z,101223.38
2022-09-22T09:29:11.484Z,101175.03
2022-09-22T09:31:41.250Z,101221.41
2022-09-22T09:34:11.645Z,101227.53
2022-09-22T09:36:41.180Z,101216.69
2022-09-22T09:39:14.259Z,101163.97
2022-09-22T09:41:42.399Z,101216.53
2022-09-22T09:44:15.666Z,101212.91
2022-09-22T09:46:51.830Z,101202.94
2022-09-22T09:49:20.791Z,101196.66
2022-09-22T09:51:49.506Z,101215.16
2022-09-22T09:54:18.960Z,101155.41
2022-09-22T09:57:03.497Z,101201.66
2022-09-22T09:59:48.743Z,101198.66
2022-09-22T10:02:16.643Z,101148.38
2022-09-22T10:04:51.633Z,101209.31
2022-09-22T10:07:21.332Z,101201.31
2022-09-22T10:09:51.095Z,101120.34
2022-09-22T10:12:27.007Z,101125.25
2022-09-22T10:14:55.355Z,101189.63
2022-09-22T10:17:24.236Z,101126.56
2022-09-22T10:19:51.931Z,101189.38
2022-09-22T10:22:27.448Z,101160.63
2022-09-22T10:25:00.311Z,101182.00
2022-09-22T10:27:28.971Z,101178.44
2022-09-22T10:30:22.439Z,101164.09
2022-09-22T10:33:07.210Z,101089.66
2022-09-22T10:35:36.135Z,101145.75
2022-09-22T10:38:08.011Z,101165.97
2022-09-22T10:40:37.128Z,101162.00
2022-09-22T10:43:05.015Z,101133.03
2022-09-22T10:45:37.639Z,101111.44
2022-09-22T10:48:06.170Z,101137.06
2022-09-22T10:50:57.046Z,101156.00
2022-09-22T10:53:37.652Z,101150.69
2022-09-22T10:56:11.382Z,101155.59
2022-09-22T10:59:06.520Z,101150.25
2022-09-22T11:01:45.032Z,101154.81
2022-09-22T11:04:31.614Z,101155.84
2022-09-22T11:07:27.422Z,101114.88
2022-09-22T11:10:14.922Z,101142.94
2022-09-22T11:12:48.139Z,101144.81
2022-09-22T11:15:33.311Z,101146.69
2022-09-22T11:18:20.548Z,101142.22
2022-09-22T11:20:49.341Z,101128.97
2022-09-22T11:24:08.271Z,101129.69
2022-09-22T11:26:48.788Z,101123.38
2022-09-22T11:29:50.384Z,101126.75
2022-09-22T11:32:30.653Z,101049.88
2022-09-22T11:35:04.984Z,101113.91
2022-09-22T11:37:40.193Z,101115.34
2022-09-22T11:40:33.639Z,101117.84
2022-09-22T11:43:09.285Z,101120.50
2022-09-22T11:45:44.769Z,101113.41
2022-09-22T11:48:18.828Z,101110.50
2022-09-22T11:50:55.125Z,101115.75
2022-09-22T11:53:32.207Z,101117.47
2022-09-22T11:56:16.663Z,101061.88
2022-09-22T11:58:44.679Z,101104.88
2022-09-22T12:01:15.094Z,101101.28
2022-09-22T12:03:45.582Z,101100.44
2022-09-22T12:06:15.406Z,101101.28
2022-09-22T12:08:45.375Z,101080.56
2022-09-22T12:11:14.085Z,101092.50
2022-09-22T12:13:43.687Z,101089.06
2022-09-22T12:16:13.947Z,101085.81
2022-09-22T12:18:43.638Z,101085.81
2022-09-22T12:21:20.731Z,101075.16
2022-09-22T12:23:51.314Z,101080.47
2022-09-22T12:26:27.119Z,100977.97
2022-09-22T12:28:54.849Z,101077.81
2022-09-22T12:33:53.343Z,101075.81
2022-09-22T12:36:29.639Z,100878.59
2022-09-22T12:39:08.142Z,101068.31
2022-09-22T12:41:48.329Z,101068.09
2022-09-22T12:44:19.618Z,101067.75
2022-09-22T12:46:48.815Z,101063.53
2022-09-22T12:49:18.964Z,101051.88
2022-09-22T12:51:46.459Z,101061.59
2022-09-22T12:54:39.723Z,101026.16
2022-09-22T12:57:29.376Z,101061.09
2022-09-22T13:00:32.087Z,101050.09
2022-09-22T13:03:02.471Z,101038.78
2022-09-22T13:05:34.707Z,101053.56
2022-09-22T13:08:02.365Z,101049.63
2022-09-22T13:10:52.862Z,101050.41
2022-09-22T13:13:36.671Z,101048.84
2022-09-22T13:16:05.939Z,101049.03
2022-09-22T13:18:36.788Z,100981.88
2022-09-22T13:21:20.071Z,101022.47
2022-09-22T13:23:57.600Z,101046.38
2022-09-22T13:26:26.213Z,101008.53
2022-09-22T13:29:01.058Z,100997.16
2022-09-22T13:31:29.049Z,101034.16
2022-09-22T13:33:58.169Z,101034.16
2022-09-22T13:36:27.079Z,101026.16
2022-09-22T13:41:15.159Z,101028.13
2022-09-22T13:43:44.337Z,101023.59
2022-09-22T13:46:18.258Z,101021.88
2022-09-22T13:48:46.124Z,101014.88
2022-09-22T13:51:15.741Z,101004.44
2022-09-22T13:53:43.732Z,101007.91
2022-09-22T13:56:12.463Z,101008.88
2022-09-22T13:58:41.174Z,101006.19
2022-09-22T14:01:14.813Z,101003.53
2022-09-22T14:03:42.732Z,101000.84
2022-09-22T14:06:11.446Z,100995.69
2022-09-22T14:08:40.489Z,101007.03
2022-09-22T14:11:12.778Z,101003.47
2022-09-22T14:13:41.188Z,100943.97
2022-09-22T14:16:18.153Z,100973.94
2022-09-22T14:18:47.146Z,100990.88
2022-09-22T14:21:14.802Z,100989.94
2022-09-22T14:23:47.823Z,100951.16
2022-09-22T14:26:28.167Z,100973.59
2022-09-22T14:28:55.963Z,100984.63
2022-09-22T14:31:25.830Z,100941.53
2022-09-22T14:33:53.581Z,100981.75
2022-09-22T14:36:22.215Z,100980.72
2022-09-22T14:39:05.856Z,100980.63
2022-09-22T14:41:37.685Z,100975.28
2022-09-22T14:44:26.411Z,100973.59
2022-09-22T14:46:56.259Z,100958.69
2022-09-22T14:49:35.962Z,100968.25
2022-09-22T14:52:03.829Z,100962.13
2022-09-22T14:54:32.869Z,100963.84
2022-09-22T14:57:00.686Z,100960.06
2022-09-22T14:59:45.988Z,100960.81
2022-09-22T15:02:27.846Z,100916.31
2022-09-22T15:04:55.561Z,100957.84
2022-09-22T15:07:25.912Z,100951.00
2022-09-22T15:09:56.455Z,100954.53
2022-09-22T15:12:38.153Z,100955.72
2022-09-22T15:15:16.461Z,100914.78
2022-09-22T15:18:02.109Z,100877.72
2022-09-22T15:20:34.907Z,100917.00
2022-09-22T15:23:02.735Z,100950.38
2022-09-22T15:25:31.842Z,100944.75
2022-09-22T15:27:59.486Z,100944.66
2022-09-22T15:30:32.755Z,100933.69
2022-09-22T15:33:00.472Z,100931.78
2022-09-22T15:35:28.397Z,100927.69
2022-09-22T15:37:56.206Z,100928.25
2022-09-22T15:40:24.595Z,100926.16
2022-09-22T15:43:13.077Z,100928.28
2022-09-22T15:45:47.667Z,100864.16
2022-09-22T15:48:23.939Z,100922.91
2022-09-22T15:50:51.817Z,100863.38
2022-09-22T15:53:19.498Z,100924.97
2022-09-22T15:55:47.949Z,100913.16
2022-09-22T15:58:18.488Z,100922.78
2022-09-22T16:00:47.297Z,100917.03
2022-09-22T16:03:16.478Z,100915.03
2022-09-22T16:05:44.881Z,100920.91
2022-09-22T16:08:15.065Z,100919.19
2022-09-22T16:10:44.265Z,100910.22
2022-09-22T16:13:12.090Z,100913.44
2022-09-22T16:15:41.524Z,100899.97
2022-09-22T16:18:10.105Z,100900.84
2022-09-22T16:20:38.298Z,100904.06
2022-09-22T16:23:06.409Z,100893.91
2022-09-22T16:25:34.108Z,100892.94
2022-09-22T16:28:02.058Z,100898.19
2022-09-22T16:30:30.388Z,100894.69
2022-09-22T16:32:59.453Z,100892.75
2022-09-22T16:35:27.148Z,100901.94
2022-09-22T16:37:55.702Z,100903.22
2022-09-22T16:40:24.686Z,100894.63
2022-09-22T16:42:52.479Z,100892.25
2022-09-22T16:45:41.094Z,100891.69
2022-09-22T16:48:10.146Z,100901.84
2022-09-22T16:50:37.857Z,100901.38
2022-09-22T16:53:07.518Z,100891.97
2022-09-22T16:55:37.408Z,100900.38
2022-09-22T16:58:07.302Z,100902.69
2022-09-22T17:00:35.108Z,100902.09
2022-09-22T17:03:02.781Z,100898.91
2022-09-22T17:05:32.832Z,100904.44
2022-09-22T17:08:04.722Z,100849.59
2022-09-22T17:10:35.942Z,100892.47
2022-09-22T17:13:04.934Z,100902.50
2022-09-22T17:15:35.912Z,100906.22
2022-09-22T17:18:04.279Z,100901.16
2022-09-22T17:20:33.332Z,100904.03
2022-09-22T17:23:01.036Z,100894.59
2022-09-22T17:25:29.113Z,100880.66
2022-09-22T17:27:57.683Z,100897.47
2022-09-22T17:30:25.387Z,100886.09
2022-09-22T17:32:53.611Z,100888.13
2022-09-22T17:35:21.306Z,100896.25
2022-09-22T17:37:53.339Z,100892.78
2022-09-22T17:40:21.102Z,100886.78
2022-09-22T17:42:48.888Z,100893.19
2022-09-22T17:45:16.815Z,100899.47
2022-09-22T17:48:01.998Z,100893.38
2022-09-22T17:50:47.418Z,100899.75
2022-09-22T17:53:34.251Z,100866.47
2022-09-22T17:56:05.180Z,100898.22
2022-09-22T17:58:32.972Z,100900.13
2022-09-22T18:01:00.682Z,100902.13
2022-09-22T18:03:29.048Z,100909.34
2022-09-22T18:05:57.468Z,100899.75
2022-09-22T18:08:26.467Z,100900.69
2022-09-22T18:10:54.443Z,100900.78
2022-09-22T18:13:22.091Z,100903.47
2022-09-22T18:15:52.313Z,100892.97
2022-09-22T18:18:20.004Z,100894.88
2022-09-22T18:20:48.409Z,100903.84
2022-09-22T18:23:16.744Z,100896.84
2022-09-22T18:25:45.849Z,100890.47
2022-09-22T18:28:13.519Z,100892.84
2022-09-22T18:30:41.237Z,100890.09
2022-09-22T18:33:09.623Z,100896.38
2022-09-22T18:35:37.328Z,100892.84
2022-09-22T18:38:05.012Z,100890.47
2022-09-22T18:40:32.794Z,100894.75
2022-09-22T18:43:01.818Z,100893.19
2022-09-22T18:45:29.829Z,100905.59
2022-09-22T18:47:59.083Z,100901.28
2022-09-22T18:50:28.185Z,100897.00
2022-09-22T18:52:56.740Z,100889.38
2022-09-22T18:55:24.455Z,100905.00
2022-09-22T18:57:52.219Z,100905.09
2022-09-22T19:00:22.082Z,100904.31
2022-09-22T19:02:50.449Z,100853.09
2022-09-22T19:05:18.365Z,100909.75
2022-09-22T19:07:47.758Z,100907.34
2022-09-22T19:10:20.541Z,100910.81
2022-09-22T19:12:48.632Z,100914.41
2022-09-22T19:15:18.827Z,100909.94
2022-09-22T19:17:49.538Z,100905.84
2022-09-22T19:20:18.416Z,100907.53
2022-09-22T19:22:46.859Z,100909.25
2022-09-22T19:25:14.992Z,100912.00
2022-09-22T19:27:42.679Z,100916.50
2022-09-22T19:30:11.409Z,100833.81
2022-09-22T19:32:39.248Z,100909.44
2022-09-22T19:35:09.239Z,100905.06
2022-09-22T19:37:36.954Z,100869.34
2022-09-22T19:40:05.322Z,100909.59
2022-09-22T19:42:36.906Z,100903.44
2022-09-22T19:45:08.200Z,100911.53
2022-09-22T19:47:35.880Z,100901.78
2022-09-22T19:50:03.883Z,100866.78
2022-09-22T19:52:34.891Z,100898.19
2022-09-22T19:55:02.783Z,100898.47
2022-09-22T19:57:31.839Z,100894.25
2022-09-22T19:59:59.703Z,100894.94
2022-09-22T20:02:27.462Z,100897.59
2022-09-22T20:04:55.976Z,100903.03
2022-09-22T20:07:27.758Z,100896.06
2022-09-22T20:09:57.347Z,100903.13
2022-09-22T20:12:25.044Z,100899.66
2022-09-22T20:14:53.324Z,100894.50
2022-09-22T20:17:22.005Z,100886.50
2022-09-22T20:19:49.917Z,100900.63
2022-09-22T20:22:19.793Z,100892.63
2022-09-22T20:24:54.197Z,100892.63
2022-09-22T20:27:25.325Z,100891.75
2022-09-22T20:29:57.037Z,100891.94
2022-09-22T20:32:25.215Z,100832.56
2022-09-22T20:34:54.072Z,100891.09
2022-09-22T20:37:21.844Z,100884.06
2022-09-22T20:39:49.815Z,100891.28
2022-09-22T20:42:17.521Z,100884.25
2022-09-22T20:44:46.875Z,100887.00
2022-09-22T20:47:15.658Z,100886.13
2022-09-22T20:49:45.842Z,100889.66
2022-09-22T20:52:16.365Z,100884.41
2022-09-22T20:54:44.167Z,100888.00
2022-09-22T20:57:11.878Z,100878.50
2022-09-22T20:59:40.037Z,100878.41
2022-09-22T21:02:10.571Z,100879.44
2022-09-22T21:04:38.295Z,100866.47
2022-09-22T21:07:06.042Z,100888.19
2022-09-22T21:09:51.188Z,100886.47
2022-09-22T21:12:18.860Z,100883.03
2022-09-22T21:14:46.549Z,100881.41
2022-09-22T21:17:15.583Z,100889.41
2022-09-22T21:19:43.350Z,100893.78
2022-09-22T21:22:11.108Z,100891.31
2022-09-22T21:24:39.376Z,100886.84
2022-09-22T21:27:07.086Z,100884.44
2022-09-22T21:29:34.815Z,100889.78
2022-09-22T21:32:03.024Z,100875.00
2022-09-22T21:34:32.092Z,100880.06
2022-09-22T21:37:00.575Z,100882.91
2022-09-22T21:39:28.262Z,100878.41
2022-09-22T21:41:56.474Z,100873.28
2022-09-22T21:44:24.209Z,100872.34
2022-09-22T21:46:51.946Z,100876.81
2022-09-22T21:49:19.635Z,100873.34
2022-09-22T21:51:48.685Z,100861.00
2022-09-22T21:54:17.817Z,100827.69
2022-09-22T21:56:45.538Z,100854.97
2022-09-22T21:59:13.358Z,100860.13
2022-09-22T22:01:42.050Z,100861.09
2022-09-22T22:04:13.791Z,100867.38
2022-09-22T22:06:42.096Z,100790.63
2022-09-22T22:09:14.689Z,100809.19
2022-09-22T22:11:43.528Z,100850.50
2022-09-22T22:14:12.114Z,100849.66
2022-09-22T22:16:40.800Z,100794.09
2022-09-22T22:19:09.318Z,100847.16
2022-09-22T22:21:37.155Z,100845.38
2022-09-22T22:24:23.045Z,100814.59
2022-09-22T22:26:52.786Z,100845.63
2022-09-22T22:29:21.022Z,100788.25
2022-09-22T22:31:49.070Z,100815.03
2022-09-22T22:34:18.193Z,100842.34
2022-09-22T22:36:45.999Z,100788.31
2022-09-22T22:39:13.849Z,100837.13
2022-09-22T22:41:41.686Z,100780.69
2022-09-22T22:44:12.278Z,100695.56
2022-09-22T22:46:40.062Z,100834.63
2022-09-22T22:49:08.294Z,100832.06
2022-09-22T22:51:36.723Z,100833.00
2022-09-22T22:54:04.981Z,100834.81
2022-09-22T22:56:32.753Z,100836.59
2022-09-22T22:59:00.463Z,100840.19
2022-09-22T23:01:30.232Z,100766.47
2022-09-22T23:04:00.208Z,100786.97
2022-09-22T23:06:29.624Z,100759.50
2022-09-22T23:08:57.396Z,100830.66
2022-09-22T23:11:27.009Z,100768.94
2022-09-22T23:13:56.188Z,100756.06
2022-09-22T23:16:25.156Z,100780.19
2022-09-22T23:18:54.210Z,100817.63
2022-09-22T23:21:22.228Z,100777.44
2022-09-22T23:23:50.163Z,100825.69
2022-09-22T23:26:18.157Z,100821.31
2022-09-22T23:28:45.857Z,100819.00
2022-09-22T23:31:14.459Z,100819.66
2022-09-22T23:33:43.510Z,100810.06
2022-09-22T23:36:13.899Z,100811.78
2022-09-22T23:38:41.571Z,100803.47
2022-09-22T23:41:10.380Z,100736.44
2022-09-22T23:43:38.135Z,100808.44
2022-09-22T23:46:07.408Z,100805.88
2022-09-22T23:48:35.304Z,100780.28
2022-09-22T23:51:03.158Z,100805.09
2022-09-22T23:53:33.356Z,100800.81
2022-09-22T23:56:00.919Z,100803.63
2022-09-22T23:58:28.809Z,100785.78
